Daugavpils, Latvia
Current Conditions -  °F | °C
As of 11:50 PM on Tuesday 25 Nov 2014 (Local Time) from EYVI Reporting Station
Haze Haze  
Wind Chill: 16°   Ceiling: 300
Heat Index: 27°   Visibility: 1.8mi
Dew Point: 27°   Wind: 13mph
Humidity: 100%   Direction: 150°SSE
Pressure: 30.39"   Gusts: NA
Location:  55.88°N, 26.51°E
Report Text: EYVI 252050Z 15011KT 2900 BR OVC003 M03/M03 Q1029 R20/1///95 NOSIG
Loading
Personal Weather Stations






























Interactive Weather Map New forecast layout! Learn more

10-Day Weather Forecast

Advertisements
Track Severe Weather on mobile